Christian Reinauer — WDA6472 — position and weather

sailwx.info

Track history (hours):
 
Tides and Currents Weather Stations Pressure Air Temp Water Temp Dewpoint Dewpoint Depression Visibility Wind Speed Wind Dir Waves Ship Positions

Christian Reinauer

Owner: REINAUER TRANSPORTATION CO LLC, STATEN ISLAND, NY. More information available from US FCC via Universal Licensing System and Coast Guard Vessel Documentation Center.

Last reported at 2017-Dec-11 10:57 UTC. Time now 2017-Dec-14 09:50 UTC.
Position N 40°55' W 073°39'.

Length 172 m; draft 6.4 m.

Type: . MMSI: 366832740.

Date/timePositionNaut miles runAvg speedWind from/ knotsBaromVisibWave heightAir tempDewpointWater temp
2017-Dec-11 10:57N 40°55' W 073°39'611.3
2017-Dec-11 10:28N 40°51' W 073°45'4 9.1
2017-Dec-11 10:00N 40°48' W 073°49'5 9.0
2017-Dec-11 09:30N 40°47' W 073°55'4 7.2
2017-Dec-11 09:00N 40°45' W 073°58'5 9.3
2017-Dec-11 08:30N 40°41' W 074°01'5 9.7
2017-Dec-11 08:00N 40°39' W 074°07'4 8.0
2017-Dec-11 07:29N 40°38' W 074°12'4 7.7
2017-Dec-11 07:00N 40°34' W 074°13'2 0.1
2017-Dec-10 09:42N 40°32' W 074°15'0 0.0
2017-Dec-10 09:30N 40°32' W 074°15'0 0.0
2017-Dec-10 09:00N 40°32' W 074°15'0 0.0
2017-Dec-10 07:18N 40°32' W 074°15'0 0.0
2017-Dec-10 06:48N 40°32' W 074°15'0 0.0
2017-Dec-10 06:18N 40°32' W 074°15'0 0.0
2017-Dec-10 06:00N 40°32' W 074°15'0 0.0
2017-Dec-10 05:30N 40°32' W 074°15'0 0.0
2017-Dec-10 05:00N 40°32' W 074°15'0 0.0
2017-Dec-10 04:18N 40°32' W 074°15'0 0.0
2017-Dec-10 04:00N 40°32' W 074°15'0 0.0
2017-Dec-10 03:24N 40°32' W 074°15'0 0.0
2017-Dec-10 02:30N 40°32' W 074°15'0 0.0
2017-Dec-10 01:54N 40°32' W 074°15'0 0.0
2017-Dec-10 01:30N 40°32' W 074°15'0 0.0
2017-Dec-10 01:00N 40°32' W 074°15'0 0.0
2017-Dec-10 00:30N 40°32' W 074°15'2 3.4
2017-Dec-09 23:56N 40°31' W 074°15'4 7.9
2017-Dec-09 23:26N 40°30' W 074°10'511.1
2017-Dec-09 23:00N 40°29' W 074°04'4 8.2
2017-Dec-09 22:30N 40°33' W 074°02'612.9
2017-Dec-09 22:00N 40°39' W 074°03'1 3.0
2017-Dec-09 21:30N 40°40' W 074°02'0 0.0
2017-Dec-09 21:00N 40°40' W 074°02'0 0.0
2017-Dec-09 20:30N 40°40' W 074°02'0 0.1
2017-Dec-09 20:00N 40°40' W 074°02'0 0.3
2017-Dec-09 19:30N 40°40' W 074°02'0 0.0
2017-Dec-09 19:00N 40°40' W 074°02'0 0.7
2017-Dec-09 18:30N 40°41' W 074°02'3 6.1
2017-Dec-09 18:00N 40°39' W 074°05'2 3.8
2017-Dec-09 17:28N 40°38' W 074°08'0 0.0
2017-Dec-09 16:58N 40°38' W 074°08'0 0.0
2017-Dec-09 16:28N 40°38' W 074°08'1 1.9
2017-Dec-09 16:00N 40°39' W 074°07'0 0.3
2017-Dec-09 15:23N 40°39' W 074°07'0 0.0
2017-Dec-09 14:56N 40°39' W 074°07'0 0.0
2017-Dec-09 14:29N 40°39' W 074°07'0 0.0
2017-Dec-09 13:56N 40°39' W 074°07'0 0.0
2017-Dec-09 13:29N 40°39' W 074°07'0 0.0
2017-Dec-09 12:38N 40°39' W 074°07'0 0.0
2017-Dec-09 12:29N 40°39' W 074°07'0 0.0
2017-Dec-09 11:56N 40°39' W 074°07'0 0.0
2017-Dec-09 11:29N 40°39' W 074°07'2 4.3
2017-Dec-09 11:00N 40°39' W 074°04'2 3.7
2017-Dec-09 10:30N 40°40' W 074°02'0 0.0
2017-Dec-09 10:00N 40°40' W 074°02'0 0.0
2017-Dec-09 09:30N 40°40' W 074°02'0 0.8
2017-Dec-09 09:00N 40°40' W 074°02'4 7.1
2017-Dec-09 08:30N 40°42' W 073°59'611.7
2017-Dec-09 08:00N 40°48' W 073°55'5 9.5
2017-Dec-09 07:30N 40°48' W 073°49'4 8.1
2017-Dec-09 07:00N 40°51' W 073°45'5012.0
2017-Dec-09 02:52N 41°06' W 072°42'411.8
2017-Dec-09 02:30N 41°08' W 072°37'611.5
2017-Dec-09 02:00N 41°09' W 072°30'510.8
2017-Dec-09 01:30N 41°10' W 072°23'5 9.8
2017-Dec-09 01:00N 41°12' W 072°16'5 9.8
2017-Dec-09 00:30N 41°13' W 072°10'5 9.1
2017-Dec-09 00:01N 41°14' W 072°04'4 8.3
2017-Dec-08 23:29N 41°14' W 071°59'38 9.8
2017-Dec-08 19:34N 41°38' W 071°18'111.8
2017-Dec-08 19:28N 41°39' W 071°19'511.2
2017-Dec-08 19:00N 41°44' W 071°21'5 9.8
2017-Dec-08 18:30N 41°48' W 071°23'0 0.3
2017-Dec-08 17:52N 41°48' W 071°24'0 0.0
2017-Dec-08 17:28N 41°48' W 071°24'0 0.0
2017-Dec-08 15:28N 41°48' W 071°24'0 0.0
2017-Dec-08 14:52N 41°48' W 071°24'0 0.0
2017-Dec-08 14:28N 41°48' W 071°24'0 0.0
2017-Dec-08 13:58N 41°48' W 071°24'0 0.0
2017-Dec-08 13:21N 41°48' W 071°24'0 0.0
2017-Dec-08 12:58N 41°48' W 071°24'0 0.0
2017-Dec-08 12:28N 41°48' W 071°24'0 0.0
2017-Dec-08 11:58N 41°48' W 071°24'0 0.0
2017-Dec-08 11:28N 41°48' W 071°24'0 0.0
2017-Dec-08 10:40N 41°48' W 071°24'0 0.0
2017-Dec-08 10:16N 41°48' W 071°24'0 0.0
2017-Dec-08 09:58N 41°48' W 071°24'0 0.0
2017-Dec-08 09:28N 41°48' W 071°24'0 0.0
2017-Dec-08 08:58N 41°48' W 071°24'0 0.0
2017-Dec-08 07:46N 41°48' W 071°24'0 0.0
2017-Dec-08 05:16N 41°48' W 071°24'0 0.0
2017-Dec-08 03:34N 41°48' W 071°24'0 0.0
2017-Dec-08 03:03N 41°48' W 071°24'0 0.0
2017-Dec-07 19:45N 41°48' W 071°24'0 0.0
2017-Dec-07 17:27N 41°48' W 071°24'0 0.0
2017-Dec-07 16:27N 41°48' W 071°24'0 0.9
2017-Dec-07 15:59N 41°48' W 071°23'1 1.0
2017-Dec-07 15:24N 41°47' W 071°23'1 3.1
2017-Dec-07 15:00N 41°46' W 071°22'4 7.2
2017-Dec-07 14:30N 41°43' W 071°20'5 9.6
2017-Dec-07 14:00N 41°38' W 071°18'3 0.6
2017-Dec-07 09:36N 41°36' W 071°18'0 0.0
2017-Dec-06 22:36N 41°36' W 071°18'0 0.1
2017-Dec-06 22:30N 41°36' W 071°18'  
2017-Dec-04 04:14N 40°32' W 074°15'0 0.0
2017-Dec-04 03:56N 40°32' W 074°15'0 0.0
2017-Dec-03 21:56N 40°32' W 074°15'0 0.0
2017-Dec-03 21:30N 40°32' W 074°15'2 4.1
2017-Dec-03 20:55N 40°34' W 074°13'3 7.7
2017-Dec-03 20:29N 40°37' W 074°12'3 7.0
2017-Dec-03 20:00N 40°39' W 074°08'4 8.5
2017-Dec-03 19:30N 40°40' W 074°03'1 1.2
2017-Dec-03 18:58N 40°40' W 074°02'0 0.1
2017-Dec-03 18:28N 40°40' W 074°02'0 0.0
2017-Dec-03 17:58N 40°40' W 074°02'0 0.0
2017-Dec-03 17:28N 40°40' W 074°02'0 0.0
2017-Dec-03 16:58N 40°40' W 074°02'0 0.0
2017-Dec-03 16:28N 40°40' W 074°02'0 0.0
2017-Dec-03 15:58N 40°40' W 074°02'0 0.0
2017-Dec-03 15:28N 40°40' W 074°02'0 0.0
2017-Dec-03 14:58N 40°40' W 074°02'0 0.1
2017-Dec-03 14:28N 40°40' W 074°02'0 0.2
2017-Dec-03 13:58N 40°40' W 074°02'0 0.1
2017-Dec-03 13:28N 40°40' W 074°02'0 0.0
2017-Dec-03 12:58N 40°40' W 074°02'0 0.0
2017-Dec-03 12:28N 40°40' W 074°02'0 0.1
2017-Dec-03 11:58N 40°40' W 074°02'0 0.0
2017-Dec-03 11:28N 40°40' W 074°02'0 0.0
2017-Dec-03 10:58N 40°40' W 074°02'0 0.0
2017-Dec-03 10:28N 40°40' W 074°02'0 0.1
2017-Dec-03 09:58N 40°40' W 074°02'0 0.2
2017-Dec-03 09:28N 40°40' W 074°02'0 0.2
2017-Dec-03 08:58N 40°40' W 074°02'0 0.0
2017-Dec-03 08:28N 40°40' W 074°02'0 0.0
2017-Dec-03 07:58N 40°40' W 074°02'0 0.0
2017-Dec-03 07:31N 40°40' W 074°02'0 0.1
2017-Dec-03 07:00N 40°40' W 074°02'0 0.0
2017-Dec-03 06:31N 40°40' W 074°02'0 0.0
2017-Dec-03 06:00N 40°40' W 074°02'0 0.0
2017-Dec-03 05:30N 40°40' W 074°02'0 0.0
2017-Dec-03 05:00N 40°40' W 074°02'0 0.0
2017-Dec-03 04:30N 40°40' W 074°02'0 0.0
2017-Dec-03 04:00N 40°40' W 074°02'0 0.0
2017-Dec-03 03:30N 40°40' W 074°02'0 0.0
2017-Dec-03 03:00N 40°40' W 074°02'0 0.1
2017-Dec-03 02:30N 40°40' W 074°02'0 0.3
2017-Dec-03 02:00N 40°40' W 074°02'2 3.3
2017-Dec-03 01:30N 40°41' W 074°00'4 8.9
2017-Dec-03 01:00N 40°45' W 073°58'4 8.3
2017-Dec-03 00:30N 40°48' W 073°53'5 9.7
2017-Dec-03 00:00N 40°49' W 073°47'711.4
2017-Dec-02 23:21N 40°54' W 073°40'4511.4
2017-Dec-02 19:27N 41°06' W 072°44'510.6
2017-Dec-02 19:00N 41°07' W 072°38'510.1
2017-Dec-02 18:30N 41°09' W 072°31'5 9.4
2017-Dec-02 18:01N 41°10' W 072°25'5 8.9
2017-Dec-02 17:30N 41°11' W 072°19'4 9.0
2017-Dec-02 17:00N 41°12' W 072°14'4 9.0
2017-Dec-02 16:30N 41°14' W 072°08'4410.0
2017-Dec-02 12:03N 41°38' W 071°18'111.6
2017-Dec-02 11:59N 41°39' W 071°18'510.9
2017-Dec-02 11:30N 41°43' W 071°21'5 9.9
2017-Dec-02 11:01N 41°48' W 071°23'0 0.8
2017-Dec-02 10:30N 41°48' W 071°24'0 0.0
2017-Dec-02 07:15N 41°48' W 071°24'0 0.0
2017-Dec-02 06:57N 41°48' W 071°24'0 0.0
2017-Dec-02 06:27N 41°48' W 071°24'0 0.0
2017-Dec-02 05:51N 41°48' W 071°24'0 0.0
2017-Dec-02 05:27N 41°48' W 071°24'0 0.0
2017-Dec-02 04:57N 41°48' W 071°24'0 0.0
2017-Dec-02 04:27N 41°48' W 071°24'0 0.0
2017-Dec-02 03:57N 41°48' W 071°24'0 0.0
2017-Dec-02 03:27N 41°48' W 071°24'0 0.0
2017-Dec-01 18:50N 41°48' W 071°24'0 0.0
2017-Dec-01 18:20N 41°48' W 071°24'0 0.0
2017-Dec-01 17:56N 41°48' W 071°24'0 0.0
2017-Dec-01 17:20N 41°48' W 071°24'  
Track history (hours):
 
Tides and Currents Weather Stations Pressure Air Temp Water Temp Dewpoint Dewpoint Depression Visibility Wind Speed Wind Dir Waves Ship Positions

Christian Reinauer

Owner: REINAUER TRANSPORTATION CO LLC, STATEN ISLAND, NY. More information available from US FCC via Universal Licensing System and Coast Guard Vessel Documentation Center.

Last reported at 2017-Dec-11 10:57 UTC. Time now 2017-Dec-14 09:50 UTC.
Position N 40°55' W 073°39'.

Length 172 m; draft 6.4 m.

Type: . MMSI: 366832740.

Date/timePositionNaut miles runAvg speedWind from/ knotsBaromVisibWave heightAir tempDewpointWater temp
2017-Dec-11 10:57N 40°55' W 073°39'611.3
2017-Dec-11 10:28N 40°51' W 073°45'4 9.1
2017-Dec-11 10:00N 40°48' W 073°49'5 9.0
2017-Dec-11 09:30N 40°47' W 073°55'4 7.2
2017-Dec-11 09:00N 40°45' W 073°58'5 9.3
2017-Dec-11 08:30N 40°41' W 074°01'5 9.7
2017-Dec-11 08:00N 40°39' W 074°07'4 8.0
2017-Dec-11 07:29N 40°38' W 074°12'4 7.7
2017-Dec-11 07:00N 40°34' W 074°13'2 0.1
2017-Dec-10 09:42N 40°32' W 074°15'0 0.0
2017-Dec-10 09:30N 40°32' W 074°15'0 0.0
2017-Dec-10 09:00N 40°32' W 074°15'0 0.0
2017-Dec-10 07:18N 40°32' W 074°15'0 0.0
2017-Dec-10 06:48N 40°32' W 074°15'0 0.0
2017-Dec-10 06:18N 40°32' W 074°15'0 0.0
2017-Dec-10 06:00N 40°32' W 074°15'0 0.0
2017-Dec-10 05:30N 40°32' W 074°15'0 0.0
2017-Dec-10 05:00N 40°32' W 074°15'0 0.0
2017-Dec-10 04:18N 40°32' W 074°15'0 0.0
2017-Dec-10 04:00N 40°32' W 074°15'0 0.0
2017-Dec-10 03:24N 40°32' W 074°15'0 0.0
2017-Dec-10 02:30N 40°32' W 074°15'0 0.0
2017-Dec-10 01:54N 40°32' W 074°15'0 0.0
2017-Dec-10 01:30N 40°32' W 074°15'0 0.0
2017-Dec-10 01:00N 40°32' W 074°15'0 0.0
2017-Dec-10 00:30N 40°32' W 074°15'2 3.4
2017-Dec-09 23:56N 40°31' W 074°15'4 7.9
2017-Dec-09 23:26N 40°30' W 074°10'511.1
2017-Dec-09 23:00N 40°29' W 074°04'4 8.2
2017-Dec-09 22:30N 40°33' W 074°02'612.9
2017-Dec-09 22:00N 40°39' W 074°03'1 3.0
2017-Dec-09 21:30N 40°40' W 074°02'0 0.0
2017-Dec-09 21:00N 40°40' W 074°02'0 0.0
2017-Dec-09 20:30N 40°40' W 074°02'0 0.1
2017-Dec-09 20:00N 40°40' W 074°02'0 0.3
2017-Dec-09 19:30N 40°40' W 074°02'0 0.0
2017-Dec-09 19:00N 40°40' W 074°02'0 0.7
2017-Dec-09 18:30N 40°41' W 074°02'3 6.1
2017-Dec-09 18:00N 40°39' W 074°05'2 3.8
2017-Dec-09 17:28N 40°38' W 074°08'0 0.0
2017-Dec-09 16:58N 40°38' W 074°08'0 0.0
2017-Dec-09 16:28N 40°38' W 074°08'1 1.9
2017-Dec-09 16:00N 40°39' W 074°07'0 0.3
2017-Dec-09 15:23N 40°39' W 074°07'0 0.0
2017-Dec-09 14:56N 40°39' W 074°07'0 0.0
2017-Dec-09 14:29N 40°39' W 074°07'0 0.0
2017-Dec-09 13:56N 40°39' W 074°07'0 0.0
2017-Dec-09 13:29N 40°39' W 074°07'0 0.0
2017-Dec-09 12:38N 40°39' W 074°07'0 0.0
2017-Dec-09 12:29N 40°39' W 074°07'0 0.0
2017-Dec-09 11:56N 40°39' W 074°07'0 0.0
2017-Dec-09 11:29N 40°39' W 074°07'2 4.3
2017-Dec-09 11:00N 40°39' W 074°04'2 3.7
2017-Dec-09 10:30N 40°40' W 074°02'0 0.0
2017-Dec-09 10:00N 40°40' W 074°02'0 0.0
2017-Dec-09 09:30N 40°40' W 074°02'0 0.8
2017-Dec-09 09:00N 40°40' W 074°02'4 7.1
2017-Dec-09 08:30N 40°42' W 073°59'611.7
2017-Dec-09 08:00N 40°48' W 073°55'5 9.5
2017-Dec-09 07:30N 40°48' W 073°49'4 8.1
2017-Dec-09 07:00N 40°51' W 073°45'5012.0
2017-Dec-09 02:52N 41°06' W 072°42'411.8
2017-Dec-09 02:30N 41°08' W 072°37'611.5
2017-Dec-09 02:00N 41°09' W 072°30'510.8
2017-Dec-09 01:30N 41°10' W 072°23'5 9.8
2017-Dec-09 01:00N 41°12' W 072°16'5 9.8
2017-Dec-09 00:30N 41°13' W 072°10'5 9.1
2017-Dec-09 00:01N 41°14' W 072°04'4 8.3
2017-Dec-08 23:29N 41°14' W 071°59'38 9.8
2017-Dec-08 19:34N 41°38' W 071°18'111.8
2017-Dec-08 19:28N 41°39' W 071°19'511.2
2017-Dec-08 19:00N 41°44' W 071°21'5 9.8
2017-Dec-08 18:30N 41°48' W 071°23'0 0.3
2017-Dec-08 17:52N 41°48' W 071°24'0 0.0
2017-Dec-08 17:28N 41°48' W 071°24'0 0.0
2017-Dec-08 15:28N 41°48' W 071°24'0 0.0
2017-Dec-08 14:52N 41°48' W 071°24'0 0.0
2017-Dec-08 14:28N 41°48' W 071°24'0 0.0
2017-Dec-08 13:58N 41°48' W 071°24'0 0.0
2017-Dec-08 13:21N 41°48' W 071°24'0 0.0
2017-Dec-08 12:58N 41°48' W 071°24'0 0.0
2017-Dec-08 12:28N 41°48' W 071°24'0 0.0
2017-Dec-08 11:58N 41°48' W 071°24'0 0.0
2017-Dec-08 11:28N 41°48' W 071°24'0 0.0
2017-Dec-08 10:40N 41°48' W 071°24'0 0.0
2017-Dec-08 10:16N 41°48' W 071°24'0 0.0
2017-Dec-08 09:58N 41°48' W 071°24'0 0.0
2017-Dec-08 09:28N 41°48' W 071°24'0 0.0
2017-Dec-08 08:58N 41°48' W 071°24'0 0.0
2017-Dec-08 07:46N 41°48' W 071°24'0 0.0
2017-Dec-08 05:16N 41°48' W 071°24'0 0.0
2017-Dec-08 03:34N 41°48' W 071°24'0 0.0
2017-Dec-08 03:03N 41°48' W 071°24'0 0.0
2017-Dec-07 19:45N 41°48' W 071°24'0 0.0
2017-Dec-07 17:27N 41°48' W 071°24'0 0.0
2017-Dec-07 16:27N 41°48' W 071°24'0 0.9
2017-Dec-07 15:59N 41°48' W 071°23'1 1.0
2017-Dec-07 15:24N 41°47' W 071°23'1 3.1
2017-Dec-07 15:00N 41°46' W 071°22'4 7.2
2017-Dec-07 14:30N 41°43' W 071°20'5 9.6
2017-Dec-07 14:00N 41°38' W 071°18'3 0.6
2017-Dec-07 09:36N 41°36' W 071°18'0 0.0
2017-Dec-06 22:36N 41°36' W 071°18'0 0.1
2017-Dec-06 22:30N 41°36' W 071°18'  
2017-Dec-04 04:14N 40°32' W 074°15'0 0.0
2017-Dec-04 03:56N 40°32' W 074°15'0 0.0
2017-Dec-03 21:56N 40°32' W 074°15'0 0.0
2017-Dec-03 21:30N 40°32' W 074°15'2 4.1
2017-Dec-03 20:55N 40°34' W 074°13'3 7.7
2017-Dec-03 20:29N 40°37' W 074°12'3 7.0
2017-Dec-03 20:00N 40°39' W 074°08'4 8.5
2017-Dec-03 19:30N 40°40' W 074°03'1 1.2
2017-Dec-03 18:58N 40°40' W 074°02'0 0.1
2017-Dec-03 18:28N 40°40' W 074°02'0 0.0
2017-Dec-03 17:58N 40°40' W 074°02'0 0.0
2017-Dec-03 17:28N 40°40' W 074°02'0 0.0
2017-Dec-03 16:58N 40°40' W 074°02'0 0.0
2017-Dec-03 16:28N 40°40' W 074°02'0 0.0
2017-Dec-03 15:58N 40°40' W 074°02'0 0.0
2017-Dec-03 15:28N 40°40' W 074°02'0 0.0
2017-Dec-03 14:58N 40°40' W 074°02'0 0.1
2017-Dec-03 14:28N 40°40' W 074°02'0 0.2
2017-Dec-03 13:58N 40°40' W 074°02'0 0.1
2017-Dec-03 13:28N 40°40' W 074°02'0 0.0
2017-Dec-03 12:58N 40°40' W 074°02'0 0.0
2017-Dec-03 12:28N 40°40' W 074°02'0 0.1
2017-Dec-03 11:58N 40°40' W 074°02'0 0.0
2017-Dec-03 11:28N 40°40' W 074°02'0 0.0
2017-Dec-03 10:58N 40°40' W 074°02'0 0.0
2017-Dec-03 10:28N 40°40' W 074°02'0 0.1
2017-Dec-03 09:58N 40°40' W 074°02'0 0.2
2017-Dec-03 09:28N 40°40' W 074°02'0 0.2
2017-Dec-03 08:58N 40°40' W 074°02'0 0.0
2017-Dec-03 08:28N 40°40' W 074°02'0 0.0
2017-Dec-03 07:58N 40°40' W 074°02'0 0.0
2017-Dec-03 07:31N 40°40' W 074°02'0 0.1
2017-Dec-03 07:00N 40°40' W 074°02'0 0.0
2017-Dec-03 06:31N 40°40' W 074°02'0 0.0
2017-Dec-03 06:00N 40°40' W 074°02'0 0.0
2017-Dec-03 05:30N 40°40' W 074°02'0 0.0
2017-Dec-03 05:00N 40°40' W 074°02'0 0.0
2017-Dec-03 04:30N 40°40' W 074°02'0 0.0
2017-Dec-03 04:00N 40°40' W 074°02'0 0.0
2017-Dec-03 03:30N 40°40' W 074°02'0 0.0
2017-Dec-03 03:00N 40°40' W 074°02'0 0.1
2017-Dec-03 02:30N 40°40' W 074°02'0 0.3
2017-Dec-03 02:00N 40°40' W 074°02'2 3.3
2017-Dec-03 01:30N 40°41' W 074°00'4 8.9
2017-Dec-03 01:00N 40°45' W 073°58'4 8.3
2017-Dec-03 00:30N 40°48' W 073°53'5 9.7
2017-Dec-03 00:00N 40°49' W 073°47'711.4
2017-Dec-02 23:21N 40°54' W 073°40'4511.4
2017-Dec-02 19:27N 41°06' W 072°44'510.6
2017-Dec-02 19:00N 41°07' W 072°38'510.1
2017-Dec-02 18:30N 41°09' W 072°31'5 9.4
2017-Dec-02 18:01N 41°10' W 072°25'5 8.9
2017-Dec-02 17:30N 41°11' W 072°19'4 9.0
2017-Dec-02 17:00N 41°12' W 072°14'4 9.0
2017-Dec-02 16:30N 41°14' W 072°08'4410.0
2017-Dec-02 12:03N 41°38' W 071°18'111.6
2017-Dec-02 11:59N 41°39' W 071°18'510.9
2017-Dec-02 11:30N 41°43' W 071°21'5 9.9
2017-Dec-02 11:01N 41°48' W 071°23'0 0.8
2017-Dec-02 10:30N 41°48' W 071°24'0 0.0
2017-Dec-02 07:15N 41°48' W 071°24'0 0.0
2017-Dec-02 06:57N 41°48' W 071°24'0 0.0
2017-Dec-02 06:27N 41°48' W 071°24'0 0.0
2017-Dec-02 05:51N 41°48' W 071°24'0 0.0
2017-Dec-02 05:27N 41°48' W 071°24'0 0.0
2017-Dec-02 04:57N 41°48' W 071°24'0 0.0
2017-Dec-02 04:27N 41°48' W 071°24'0 0.0
2017-Dec-02 03:57N 41°48' W 071°24'0 0.0
2017-Dec-02 03:27N 41°48' W 071°24'0 0.0
2017-Dec-01 18:50N 41°48' W 071°24'0 0.0
2017-Dec-01 18:20N 41°48' W 071°24'0 0.0
2017-Dec-01 17:56N 41°48' W 071°24'0 0.0
2017-Dec-01 17:20N 41°48' W 071°24'  

Dump ship's entire track history